Time;durP1;ratioP1;P1;durP2;ratioP2;P2;SDS_P1;SDS_P2;PMS_P1;PMS_P2;Temp;Humidity;BMP_temperature;BMP_pressure;BME280_temperature;BME280_humidity;BME280_pressure;Samples;Min_cycle;Max_cycle;Signal;HPM_P1;HPM_P2
2021/07/11 00:02:24;;;;;;;15.20;13.90;;;21.60;99.90;;;;;;5054388;28;21015;-63
2021/07/11 00:04:51;;;;;;;13.90;12.70;;;21.50;99.90;;;;;;5054383;28;20482;-63
2021/07/11 00:07:17;;;;;;;12.60;11.60;;;21.50;99.90;;;;;;5066211;28;20474;-63
2021/07/11 00:09:45;;;;;;;12.80;11.80;;;21.60;99.90;;;;;;5065752;28;20769;-63
2021/07/11 00:12:12;;;;;;;13.90;12.60;;;21.60;99.90;;;;;;5060530;28;20470;-63
2021/07/11 00:14:40;;;;;;;12.30;11.30;;;21.60;99.90;;;;;;5059106;28;20475;-63
2021/07/11 00:17:07;;;;;;;11.87;10.87;;;21.50;99.90;;;;;;5059186;28;20484;-63
2021/07/11 00:19:34;;;;;;;11.27;10.37;;;21.50;99.90;;;;;;5054597;28;20471;-63
2021/07/11 00:22:01;;;;;;;10.73;9.83;;;21.50;99.90;;;;;;5058268;28;20983;-63
2021/07/11 00:24:28;;;;;;;12.13;11.13;;;21.50;99.90;;;;;;5058162;28;20477;-63
2021/07/11 00:26:55;;;;;;;16.00;14.50;;;21.50;99.90;;;;;;5060431;28;20505;-63
2021/07/11 00:29:22;;;;;;;16.63;15.03;;;21.40;99.90;;;;;;5057784;28;20467;-63
2021/07/11 00:31:51;;;;;;;17.50;15.90;;;21.40;99.90;;;;;;5059455;28;20486;-63
2021/07/11 00:34:18;;;;;;;18.70;17.00;;;21.40;99.90;;;;;;5067930;28;20520;-63
2021/07/11 00:36:45;;;;;;;24.70;22.50;;;21.40;99.90;;;;;;5066556;28;20535;-64
2021/07/11 00:39:12;;;;;;;24.30;22.00;;;21.40;99.90;;;;;;5057738;28;21291;-63
2021/07/11 00:41:39;;;;;;;21.97;19.87;;;21.40;99.90;;;;;;5060250;28;20525;-63
2021/07/11 00:44:07;;;;;;;17.10;15.60;;;21.40;99.90;;;;;;5066774;28;20524;-64
2021/07/11 00:46:34;;;;;;;19.90;18.07;;;21.40;99.90;;;;;;5059177;28;20542;-63
2021/07/11 00:49:04;;;;;;;18.03;16.23;;;21.40;99.90;;;;;;5053771;28;20486;-63
2021/07/11 00:51:31;;;;;;;15.20;13.87;;;21.40;99.90;;;;;;5054857;28;20474;-63
2021/07/11 00:53:58;;;;;;;15.30;13.90;;;21.30;99.90;;;;;;5051970;28;20537;-63
2021/07/11 00:56:26;;;;;;;11.40;10.40;;;21.30;99.90;;;;;;5053050;28;20544;-63
2021/07/11 00:58:53;;;;;;;12.70;11.60;;;21.30;99.90;;;;;;5053347;28;20491;-63
2021/07/11 01:01:25;;;;;;;23.50;21.30;;;21.30;99.90;;;;;;5057499;28;20525;-63
2021/07/11 01:03:55;;;;;;;16.10;14.60;;;21.30;99.90;;;;;;5066077;28;20470;-63
2021/07/11 01:06:23;;;;;;;15.13;13.83;;;21.30;99.90;;;;;;5057633;28;20466;-63
2021/07/11 01:08:55;;;;;;;13.73;12.63;;;21.30;99.90;;;;;;5053129;28;20545;-63
2021/07/11 01:11:25;;;;;;;12.13;11.13;;;21.30;99.90;;;;;;5057467;28;20546;-63
2021/07/11 01:13:55;;;;;;;14.13;12.80;;;21.30;99.90;;;;;;5060277;28;20479;-63
2021/07/11 01:16:26;;;;;;;14.30;12.90;;;21.30;99.90;;;;;;5067950;28;20534;-63
2021/07/11 01:18:55;;;;;;;12.90;11.80;;;21.20;99.90;;;;;;5062484;28;20478;-63
2021/07/11 01:21:26;;;;;;;13.70;12.40;;;21.30;99.90;;;;;;5054125;28;20479;-63
2021/07/11 01:23:59;;;;;;;14.00;12.80;;;21.20;99.90;;;;;;5055868;28;20490;-62
2021/07/11 01:26:29;;;;;;;12.30;11.30;;;21.20;99.90;;;;;;5054212;28;20463;-63
2021/07/11 01:28:58;;;;;;;12.63;11.53;;;21.20;99.90;;;;;;5054866;28;20470;-63
2021/07/11 01:31:27;;;;;;;11.43;10.43;;;21.20;99.90;;;;;;5059238;28;20473;-63
2021/07/11 01:33:55;;;;;;;12.00;10.90;;;21.20;99.90;;;;;;5065622;28;20475;-63
2021/07/11 01:36:23;;;;;;;12.33;11.33;;;21.20;99.90;;;;;;5062741;28;20466;-63
2021/07/11 01:38:52;;;;;;;16.90;15.30;;;21.10;99.90;;;;;;5067592;28;20474;-63
2021/07/11 01:41:21;;;;;;;12.43;11.40;;;21.10;99.90;;;;;;5060141;28;20455;-63
2021/07/11 01:43:53;;;;;;;13.10;12.00;;;21.10;99.90;;;;;;5057983;28;20467;-63
2021/07/11 01:46:21;;;;;;;11.90;10.90;;;21.10;99.90;;;;;;5062648;28;20481;-63
2021/07/11 01:48:49;;;;;;;12.93;11.83;;;21.00;99.90;;;;;;5056764;28;20470;-63
2021/07/11 01:51:16;;;;;;;11.77;10.77;;;21.10;99.90;;;;;;5058012;28;20520;-63
2021/07/11 01:53:47;;;;;;;11.20;10.30;;;21.00;99.90;;;;;;5071925;28;20471;-63
2021/07/11 01:56:14;;;;;;;12.07;11.03;;;21.00;99.90;;;;;;5072297;28;20880;-63
2021/07/11 01:58:42;;;;;;;12.27;11.27;;;21.00;99.90;;;;;;5072907;28;20474;-63
2021/07/11 02:01:13;;;;;;;12.93;11.83;;;21.00;99.90;;;;;;5072898;28;20987;-63
2021/07/11 02:03:40;;;;;;;14.00;12.70;;;21.00;99.90;;;;;;5074109;28;20838;-63
2021/07/11 02:06:08;;;;;;;12.67;11.57;;;21.00;99.90;;;;;;5070402;28;20462;-63
2021/07/11 02:08:37;;;;;;;13.17;12.10;;;21.00;99.90;;;;;;5059530;28;20532;-63
2021/07/11 02:11:04;;;;;;;12.73;11.63;;;21.00;99.90;;;;;;5062148;28;20541;-63
2021/07/11 02:13:37;;;;;;;11.63;10.70;;;21.00;99.90;;;;;;5054449;28;20779;-63
2021/07/11 02:16:08;;;;;;;11.63;10.67;;;21.00;99.90;;;;;;5071799;28;20470;-61
2021/07/11 02:18:39;;;;;;;14.70;13.50;;;20.90;99.90;;;;;;5068499;28;20463;-62
2021/07/11 02:21:07;;;;;;;14.20;12.90;;;20.90;99.90;;;;;;5054462;28;20467;-62
2021/07/11 02:23:35;;;;;;;13.20;12.17;;;20.90;99.90;;;;;;5071120;28;20462;-61
2021/07/11 02:26:03;;;;;;;14.00;12.70;;;20.90;99.90;;;;;;5060142;28;20479;-62
2021/07/11 02:28:31;;;;;;;14.87;13.43;;;20.90;99.90;;;;;;5062361;28;20470;-61
2021/07/11 02:31:00;;;;;;;15.77;14.43;;;20.90;99.90;;;;;;5073335;28;20473;-62
2021/07/11 02:33:32;;;;;;;19.07;17.17;;;20.90;99.90;;;;;;5060180;28;20559;-62
2021/07/11 02:36:01;;;;;;;16.40;14.97;;;20.80;99.90;;;;;;5056310;28;20557;-62
2021/07/11 02:38:36;;;;;;;14.83;13.53;;;20.90;99.90;;;;;;5056153;28;21075;-62
2021/07/11 02:41:04;;;;;;;22.23;18.37;;;20.80;99.90;;;;;;5064760;28;20474;-61
2021/07/11 02:43:32;;;;;;;12.40;11.30;;;20.80;99.90;;;;;;5065602;28;21257;-62
2021/07/11 02:46:01;;;;;;;11.57;10.60;;;20.80;99.90;;;;;;5066469;28;20478;-62
2021/07/11 02:48:29;;;;;;;12.00;11.00;;;20.80;99.90;;;;;;5054236;28;20839;-62
2021/07/11 02:50:57;;;;;;;11.60;10.70;;;20.80;99.90;;;;;;5061774;28;20478;-62
2021/07/11 02:53:28;;;;;;;12.00;10.80;;;20.80;99.90;;;;;;5061765;28;20471;-62
2021/07/11 02:55:58;;;;;;;10.90;10.00;;;20.80;99.90;;;;;;5054534;28;20486;-62
2021/07/11 02:58:30;;;;;;;15.00;13.60;;;20.80;99.90;;;;;;5054021;28;20471;-62
2021/07/11 03:00:57;;;;;;;15.50;14.13;;;20.80;99.90;;;;;;5054452;28;20879;-62
2021/07/11 03:03:26;;;;;;;12.60;11.40;;;20.80;99.90;;;;;;5053466;28;20996;-62
2021/07/11 03:05:55;;;;;;;12.40;11.40;;;20.80;99.90;;;;;;5054072;28;20475;-61
2021/07/11 03:08:23;;;;;;;11.70;10.70;;;20.70;99.90;;;;;;5072090;28;20475;-62
2021/07/11 03:10:51;;;;;;;12.00;10.93;;;20.70;99.90;;;;;;5071438;28;20489;-62
2021/07/11 03:13:19;;;;;;;11.33;10.33;;;20.70;99.90;;;;;;5053453;28;20463;-62
2021/07/11 03:15:46;;;;;;;13.37;12.17;;;20.70;99.90;;;;;;5054265;28;20516;-61
2021/07/11 03:18:14;;;;;;;12.67;11.57;;;20.70;99.90;;;;;;5053637;28;20533;-62
2021/07/11 03:20:46;;;;;;;10.93;10.03;;;20.70;99.90;;;;;;5053970;28;20479;-62
2021/07/11 03:23:13;;;;;;;12.90;11.57;;;20.70;99.90;;;;;;5053430;28;20472;-62
2021/07/11 03:25:41;;;;;;;12.60;11.60;;;20.70;99.90;;;;;;5053972;28;20941;-62
2021/07/11 03:28:09;;;;;;;13.90;10.57;;;20.70;99.90;;;;;;5053604;28;20468;-61
2021/07/11 03:30:43;;;;;;;12.37;11.30;;;20.70;99.90;;;;;;5053692;28;20940;-62
2021/07/11 03:33:13;;;;;;;11.90;11.00;;;20.60;99.90;;;;;;5060562;28;20466;-62
2021/07/11 03:35:45;;;;;;;11.20;10.20;;;20.60;99.90;;;;;;5073292;28;20994;-62
2021/07/11 03:38:16;;;;;;;13.40;11.47;;;20.60;99.90;;;;;;5067226;28;20546;-61
2021/07/11 03:40:45;;;;;;;11.33;10.43;;;20.60;99.90;;;;;;5053465;28;20470;-62
2021/07/11 03:43:16;;;;;;;11.23;10.33;;;20.70;99.90;;;;;;5053327;28;20864;-62
2021/07/11 03:45:43;;;;;;;10.53;9.63;;;20.70;99.90;;;;;;5065712;28;20471;-62
2021/07/11 03:48:17;;;;;;;11.00;10.20;;;20.70;99.90;;;;;;5053130;28;20475;-62
2021/07/11 03:50:48;;;;;;;12.90;11.23;;;20.70;99.90;;;;;;5053296;28;20874;-62
2021/07/11 03:53:21;;;;;;;11.13;10.27;;;20.60;99.90;;;;;;5053413;28;20471;-61
2021/07/11 03:55:49;;;;;;;11.83;10.83;;;20.60;99.90;;;;;;5052951;28;20460;-62
2021/07/11 03:58:20;;;;;;;12.60;11.30;;;20.60;99.90;;;;;;5053176;28;20851;-62
2021/07/11 04:00:48;;;;;;;10.07;9.17;;;20.60;99.90;;;;;;5052854;28;20951;-61
2021/07/11 04:03:16;;;;;;;10.60;9.80;;;20.70;99.90;;;;;;5053067;28;20860;-62
2021/07/11 04:05:43;;;;;;;10.67;9.77;;;20.70;99.90;;;;;;5052963;28;20524;-62
2021/07/11 04:08:14;;;;;;;10.97;10.07;;;20.70;99.90;;;;;;5069537;28;20903;-61
2021/07/11 04:10:42;;;;;;;11.50;10.60;;;20.70;99.90;;;;;;5072808;28;20481;-62
2021/07/11 04:13:09;;;;;;;10.70;9.70;;;20.70;99.90;;;;;;5056453;28;20460;-61
2021/07/11 04:15:37;;;;;;;9.43;8.73;;;20.80;99.90;;;;;;5052783;28;20463;-62
2021/07/11 04:18:07;;;;;;;9.90;9.00;;;20.80;99.90;;;;;;5053048;28;20467;-62
2021/07/11 04:20:36;;;;;;;10.37;9.57;;;20.80;99.90;;;;;;5052864;28;20495;-62
2021/07/11 04:23:05;;;;;;;9.13;8.43;;;20.90;99.90;;;;;;5067355;28;20545;-62
2021/07/11 04:25:33;;;;;;;10.07;9.30;;;20.90;99.90;;;;;;5052785;28;20602;-62
2021/07/11 04:28:01;;;;;;;10.07;9.23;;;20.90;99.90;;;;;;5053017;28;20482;-62
2021/07/11 04:30:29;;;;;;;9.10;8.30;;;20.90;99.90;;;;;;5052615;28;20474;-62
2021/07/11 04:32:57;;;;;;;9.83;9.13;;;21.00;99.90;;;;;;5057792;28;20463;-62
2021/07/11 04:35:25;;;;;;;10.90;9.80;;;21.00;99.90;;;;;;5072738;28;20470;-62
2021/07/11 04:37:51;;;;;;;9.93;9.13;;;21.00;99.90;;;;;;5072523;28;20459;-62
2021/07/11 04:40:18;;;;;;;11.27;10.37;;;21.00;99.90;;;;;;5072906;28;20866;-62
2021/07/11 04:42:46;;;;;;;8.83;8.13;;;21.10;99.90;;;;;;5064595;28;20467;-62
2021/07/11 04:45:13;;;;;;;9.93;9.20;;;21.20;99.90;;;;;;5069090;28;20497;-62
2021/07/11 04:47:40;;;;;;;9.33;8.73;;;21.20;99.90;;;;;;5072233;28;20474;-63
2021/07/11 04:50:10;;;;;;;10.13;9.27;;;21.20;99.90;;;;;;5072674;28;20470;-62
2021/07/11 04:52:39;;;;;;;9.20;8.50;;;21.30;99.90;;;;;;5072239;28;20470;-62
2021/07/11 04:55:08;;;;;;;10.37;9.57;;;21.30;99.90;;;;;;5072652;28;20462;-62
2021/07/11 04:57:35;;;;;;;10.43;9.43;;;21.30;99.90;;;;;;5071917;28;20474;-62
2021/07/11 05:00:02;;;;;;;8.97;8.27;;;21.40;99.90;;;;;;5072885;28;20466;-62
2021/07/11 05:02:29;;;;;;;8.73;8.03;;;21.40;99.90;;;;;;5072243;28;20808;-61
2021/07/11 05:04:56;;;;;;;9.47;8.70;;;21.50;99.90;;;;;;5072447;28;20467;-63
2021/07/11 05:07:24;;;;;;;8.90;8.20;;;21.50;99.90;;;;;;5072453;28;20948;-62
2021/07/11 05:09:51;;;;;;;9.40;8.60;;;21.50;99.90;;;;;;5071989;28;20466;-62
2021/07/11 05:12:18;;;;;;;8.87;8.17;;;21.60;99.90;;;;;;5062733;28;20516;-62
2021/07/11 05:14:45;;;;;;;9.90;9.10;;;21.60;99.90;;;;;;5051916;28;20478;-62
2021/07/11 05:17:12;;;;;;;9.30;8.70;;;21.60;99.90;;;;;;5052425;28;20786;-62
2021/07/11 05:19:39;;;;;;;9.33;8.63;;;21.60;99.90;;;;;;5051939;28;20529;-63
2021/07/11 05:22:06;;;;;;;8.27;7.67;;;21.60;99.90;;;;;;5056552;28;20848;-62
2021/07/11 05:24:34;;;;;;;8.20;7.60;;;21.60;99.90;;;;;;5056040;28;20459;-62
2021/07/11 05:27:01;;;;;;;8.67;7.90;;;21.60;99.90;;;;;;5056338;28;20467;-62
2021/07/11 05:29:28;;;;;;;8.53;7.93;;;21.60;99.90;;;;;;5071577;28;20474;-62
2021/07/11 05:31:55;;;;;;;8.00;7.43;;;21.60;99.90;;;;;;5061511;28;20521;-62
2021/07/11 05:34:22;;;;;;;9.07;8.27;;;21.60;99.90;;;;;;5073126;28;20466;-62
2021/07/11 05:36:49;;;;;;;9.00;8.30;;;21.60;99.90;;;;;;5075311;28;20466;-62
2021/07/11 05:39:16;;;;;;;7.97;7.37;;;21.60;99.90;;;;;;5076168;28;20544;-62
2021/07/11 05:41:45;;;;;;;8.67;8.07;;;21.70;99.90;;;;;;5066551;28;20474;-63
2021/07/11 05:44:12;;;;;;;10.73;9.73;;;21.70;99.90;;;;;;5063690;28;20960;-62
2021/07/11 05:46:39;;;;;;;8.53;7.80;;;21.70;99.90;;;;;;5075508;28;20466;-63
2021/07/11 05:49:06;;;;;;;8.43;7.73;;;21.70;99.90;;;;;;5075889;28;20482;-62
2021/07/11 05:51:32;;;;;;;8.97;8.37;;;21.70;99.90;;;;;;5075610;28;20835;-62
2021/07/11 05:53:59;;;;;;;9.17;8.43;;;21.80;99.90;;;;;;5075895;28;20458;-62
2021/07/11 05:56:26;;;;;;;10.77;9.83;;;21.80;99.90;;;;;;5075749;28;20458;-63
2021/07/11 05:58:55;;;;;;;8.73;8.03;;;21.90;99.90;;;;;;5074564;28;20473;-62
2021/07/11 06:01:22;;;;;;;9.90;9.10;;;22.00;99.90;;;;;;5073858;28;20474;-63
2021/07/11 06:03:49;;;;;;;8.97;8.27;;;22.10;99.90;;;;;;5074308;28;20979;-62
2021/07/11 06:06:16;;;;;;;8.30;7.70;;;22.10;99.90;;;;;;5074871;28;20859;-62
2021/07/11 06:08:43;;;;;;;10.23;9.43;;;22.20;99.90;;;;;;5074415;28;20547;-62
2021/07/11 06:11:10;;;;;;;9.20;8.40;;;22.30;99.80;;;;;;5074618;28;20531;-62
2021/07/11 06:13:37;;;;;;;9.00;8.20;;;22.40;99.40;;;;;;5074726;28;20478;-63
2021/07/11 06:16:05;;;;;;;9.07;8.37;;;22.50;99.80;;;;;;5075155;28;20535;-62
2021/07/11 06:18:32;;;;;;;8.43;7.83;;;22.60;99.40;;;;;;5075342;28;20470;-63
2021/07/11 06:20:59;;;;;;;8.03;7.50;;;22.80;99.20;;;;;;5074730;28;20459;-62
2021/07/11 06:23:26;;;;;;;8.33;7.73;;;22.90;98.90;;;;;;5075214;28;20777;-62
2021/07/11 06:25:53;;;;;;;7.20;6.70;;;23.00;99.30;;;;;;5074931;28;20466;-63
2021/07/11 06:28:20;;;;;;;7.60;7.00;;;23.20;99.00;;;;;;5075282;28;20470;-63
2021/07/11 06:30:47;;;;;;;7.90;7.30;;;23.40;99.50;;;;;;5074329;28;20466;-62
2021/07/11 06:33:15;;;;;;;7.23;6.73;;;23.60;98.80;;;;;;5075072;28;20520;-62
2021/07/11 06:35:42;;;;;;;6.47;5.90;;;23.80;99.10;;;;;;5074529;28;20983;-63
2021/07/11 06:38:09;;;;;;;10.47;7.63;;;24.00;97.80;;;;;;5075168;28;20474;-62
2021/07/11 06:40:36;;;;;;;7.90;7.10;;;24.20;98.80;;;;;;5074658;28;20820;-61
2021/07/11 06:43:03;;;;;;;6.27;5.83;;;24.40;97.20;;;;;;5067382;28;20971;-62
2021/07/11 06:45:30;;;;;;;6.57;6.07;;;24.60;96.90;;;;;;5055030;28;20467;-62
2021/07/11 06:47:57;;;;;;;7.20;6.57;;;24.80;96.60;;;;;;5068994;28;20478;-62
2021/07/11 06:50:25;;;;;;;6.33;5.90;;;25.00;96.70;;;;;;5073912;28;20470;-62
2021/07/11 06:52:52;;;;;;;5.57;5.17;;;25.20;95.60;;;;;;5072408;28;20983;-62
2021/07/11 06:55:20;;;;;;;4.83;4.53;;;25.40;96.00;;;;;;5065390;28;20466;-63
2021/07/11 06:57:46;;;;;;;5.37;5.07;;;25.70;94.60;;;;;;5074181;28;20477;-62
2021/07/11 07:00:16;;;;;;;5.67;5.27;;;25.80;93.80;;;;;;5074860;28;20455;-62
2021/07/11 07:02:43;;;;;;;5.67;5.13;;;26.10;93.60;;;;;;5074008;28;20967;-62
2021/07/11 07:05:11;;;;;;;4.67;4.37;;;26.30;93.30;;;;;;5074835;28;20466;-63
2021/07/11 07:07:40;;;;;;;5.07;4.60;;;26.40;92.50;;;;;;5074000;28;20466;-62
2021/07/11 07:10:09;;;;;;;5.27;4.73;;;26.60;92.20;;;;;;5074226;28;20569;-63
2021/07/11 07:12:37;;;;;;;4.40;4.10;;;26.90;92.40;;;;;;5074213;28;20463;-63
2021/07/11 07:15:04;;;;;;;5.40;5.00;;;27.10;92.50;;;;;;5074094;28;20467;-62
2021/07/11 07:17:31;;;;;;;4.67;4.13;;;27.20;91.20;;;;;;5074178;28;20971;-64
2021/07/11 07:19:58;;;;;;;3.90;3.60;;;27.40;90.10;;;;;;5073898;28;20474;-62
2021/07/11 07:22:25;;;;;;;3.80;3.50;;;27.40;89.70;;;;;;5074211;28;20469;-63
2021/07/11 07:24:53;;;;;;;4.33;3.93;;;27.60;89.80;;;;;;5073773;28;20816;-62
2021/07/11 07:27:20;;;;;;;4.30;3.90;;;27.70;87.80;;;;;;5074231;28;20466;-62
2021/07/11 07:29:47;;;;;;;4.00;3.57;;;27.80;87.20;;;;;;5073802;28;20516;-63
2021/07/11 07:32:14;;;;;;;4.97;4.67;;;27.90;86.30;;;;;;5074113;28;20913;-63
2021/07/11 07:34:41;;;;;;;3.87;3.53;;;28.00;88.30;;;;;;5073809;28;20474;-63
2021/07/11 07:37:08;;;;;;;3.87;3.40;;;28.00;84.50;;;;;;5073670;28;20470;-62
2021/07/11 07:39:35;;;;;;;4.87;3.27;;;28.00;84.10;;;;;;5073817;28;20477;-63
2021/07/11 07:42:04;;;;;;;3.30;3.00;;;28.00;83.50;;;;;;5073254;28;20485;-62
2021/07/11 07:44:33;;;;;;;4.40;2.67;;;28.10;83.60;;;;;;5056727;28;20941;-63
2021/07/11 07:47:00;;;;;;;3.70;3.40;;;28.10;82.90;;;;;;5053263;28;20468;-63
2021/07/11 07:49:27;;;;;;;3.87;3.60;;;28.20;83.10;;;;;;5053746;28;20478;-62
2021/07/11 07:51:54;;;;;;;3.30;3.00;;;28.30;83.60;;;;;;5053261;28;20478;-62
2021/07/11 07:54:21;;;;;;;3.30;3.10;;;28.30;81.50;;;;;;5063621;28;20469;-63
2021/07/11 07:56:47;;;;;;;3.10;2.83;;;28.20;81.00;;;;;;5073080;28;20500;-62
2021/07/11 07:59:16;;;;;;;3.40;3.20;;;28.10;79.80;;;;;;5073615;28;20474;-63
2021/07/11 08:01:43;;;;;;;3.57;3.37;;;28.10;80.80;;;;;;5073206;28;20481;-61
2021/07/11 08:04:10;;;;;;;3.23;3.03;;;28.10;81.60;;;;;;5073350;28;20853;-62
2021/07/11 08:06:38;;;;;;;3.60;3.30;;;28.10;80.60;;;;;;5073337;28;20508;-62
2021/07/11 08:09:05;;;;;;;4.10;3.33;;;28.10;80.20;;;;;;5072753;28;20524;-63
2021/07/11 08:11:32;;;;;;;3.10;2.90;;;28.00;79.60;;;;;;5073333;28;20471;-63
2021/07/11 08:13:59;;;;;;;3.43;3.23;;;28.00;80.10;;;;;;5072863;28;20466;-63
2021/07/11 08:16:27;;;;;;;3.20;3.00;;;28.00;80.50;;;;;;5073195;28;20470;-63
2021/07/11 08:18:54;;;;;;;3.70;3.40;;;28.00;80.40;;;;;;5072576;28;20470;-62
2021/07/11 08:21:21;;;;;;;4.23;3.93;;;28.10;80.70;;;;;;5072887;28;20466;-62
2021/07/11 08:23:48;;;;;;;3.90;3.63;;;28.20;80.40;;;;;;5072785;28;20847;-62
2021/07/11 08:26:15;;;;;;;4.40;4.10;;;28.30;80.40;;;;;;5072808;28;20469;-61
2021/07/11 08:28:42;;;;;;;5.13;4.63;;;28.50;79.90;;;;;;5072989;28;21012;-61
2021/07/11 08:31:09;;;;;;;4.40;4.10;;;28.60;82.30;;;;;;5072808;28;20473;-62
2021/07/11 08:33:37;;;;;;;9.00;8.30;;;28.80;81.90;;;;;;5072721;28;20463;-62
2021/07/11 08:36:05;;;;;;;5.03;4.63;;;28.90;82.70;;;;;;5072315;28;20465;-62
2021/07/11 08:38:32;;;;;;;5.00;4.50;;;28.90;78.30;;;;;;5072716;28;20474;-62
2021/07/11 08:40:58;;;;;;;3.67;3.37;;;28.90;75.90;;;;;;5072455;28;20960;-62
2021/07/11 08:43:27;;;;;;;3.40;3.20;;;28.90;74.70;;;;;;5065100;28;20470;-62
2021/07/11 08:45:54;;;;;;;4.33;4.03;;;28.80;72.80;;;;;;5052348;28;20809;-61
2021/07/11 08:48:21;;;;;;;5.60;4.00;;;28.90;73.30;;;;;;5052265;28;20471;-63
2021/07/11 08:50:50;;;;;;;5.13;4.30;;;28.80;73.60;;;;;;5052044;28;20463;-62
2021/07/11 08:53:17;;;;;;;4.80;4.50;;;28.80;74.00;;;;;;5053773;28;20459;-62
2021/07/11 08:55:44;;;;;;;3.57;3.27;;;28.80;74.20;;;;;;5072273;28;20481;-63
2021/07/11 08:58:14;;;;;;;3.60;3.33;;;28.80;73.90;;;;;;5072389;28;20535;-63
2021/07/11 09:00:41;;;;;;;4.20;3.90;;;28.70;73.40;;;;;;5072709;28;20509;-62
2021/07/11 09:03:08;;;;;;;4.10;3.80;;;28.60;73.40;;;;;;5072061;28;20928;-63
2021/07/11 09:05:39;;;;;;;4.00;3.80;;;28.70;73.70;;;;;;5072447;28;20458;-62
2021/07/11 09:08:12;;;;;;;4.70;4.20;;;28.60;72.90;;;;;;5072210;28;20470;-63
2021/07/11 09:10:42;;;;;;;3.63;3.33;;;28.70;73.00;;;;;;5072406;28;20474;-63
2021/07/11 09:13:11;;;;;;;4.30;3.60;;;28.70;71.80;;;;;;5072248;28;20462;-62
2021/07/11 09:15:41;;;;;;;5.03;4.23;;;28.70;70.90;;;;;;5072517;28;20474;-62
2021/07/11 09:18:08;;;;;;;4.20;3.90;;;28.60;70.10;;;;;;5072007;28;20466;-62
2021/07/11 09:20:49;;;;;;;4.90;4.50;;;28.60;68.30;;;;;;5072523;28;20470;-63
2021/07/11 09:23:18;;;;;;;4.33;4.10;;;28.50;69.00;;;;;;5071882;28;21259;-63
2021/07/11 09:25:55;;;;;;;3.93;3.73;;;28.50;68.20;;;;;;5072390;28;20466;-63
2021/07/11 09:28:22;;;;;;;3.80;3.60;;;28.40;68.70;;;;;;5072170;28;20788;-63
2021/07/11 09:31:01;;;;;;;4.47;4.17;;;28.40;67.90;;;;;;5072266;28;20515;-63
2021/07/11 09:33:29;;;;;;;4.00;3.60;;;28.50;68.50;;;;;;5071768;28;21238;-63
2021/07/11 09:36:07;;;;;;;4.23;3.83;;;28.40;67.30;;;;;;5072542;28;20851;-63
2021/07/11 09:38:36;;;;;;;3.80;3.50;;;28.30;67.50;;;;;;5071736;28;20469;-62
2021/07/11 09:41:15;;;;;;;4.47;3.80;;;28.30;68.10;;;;;;5072274;28;20516;-63
2021/07/11 09:43:43;;;;;;;3.93;3.50;;;28.30;68.10;;;;;;5062148;28;21578;-63
2021/07/11 09:46:13;;;;;;;4.00;3.60;;;28.30;67.90;;;;;;5052217;28;20470;-63
2021/07/11 09:48:40;;;;;;;3.93;3.63;;;28.30;68.60;;;;;;5051590;28;20795;-63
2021/07/11 09:51:18;;;;;;;3.77;3.53;;;28.30;68.50;;;;;;5051912;28;20840;-63
2021/07/11 09:53:49;;;;;;;3.40;3.20;;;28.30;68.10;;;;;;5051775;28;20470;-63
2021/07/11 09:56:33;;;;;;;4.17;3.77;;;28.30;68.60;;;;;;5052131;28;20646;-63
2021/07/11 09:59:01;;;;;;;3.40;3.20;;;28.30;68.40;;;;;;5052386;28;20529;-63
2021/07/11 10:01:28;;;;;;;3.77;3.57;;;28.40;67.60;;;;;;5051541;28;20460;-63
2021/07/11 10:03:55;;;;;;;3.50;3.30;;;28.40;66.70;;;;;;5051929;28;21026;-63
2021/07/11 10:06:22;;;;;;;4.60;3.60;;;28.40;66.70;;;;;;5053050;28;20471;-63
2021/07/11 10:08:50;;;;;;;3.80;3.60;;;28.40;66.70;;;;;;5055775;28;20490;-63
2021/07/11 10:11:17;;;;;;;3.70;3.50;;;28.40;66.70;;;;;;5054976;28;20474;-63
2021/07/11 10:13:44;;;;;;;3.70;3.40;;;28.40;67.90;;;;;;5055661;28;20471;-63
2021/07/11 10:16:12;;;;;;;4.10;3.80;;;28.50;67.30;;;;;;5055073;28;20463;-63
2021/07/11 10:18:40;;;;;;;3.60;3.30;;;28.50;67.80;;;;;;5055400;28;20467;-63
2021/07/11 10:21:11;;;;;;;3.33;3.13;;;28.40;67.20;;;;;;5055260;28;20471;-63
2021/07/11 10:23:42;;;;;;;4.33;4.03;;;28.40;67.50;;;;;;5055123;28;20550;-63
2021/07/11 10:26:13;;;;;;;4.13;3.83;;;28.40;67.30;;;;;;5054830;28;20542;-63
2021/07/11 10:28:45;;;;;;;4.53;4.23;;;28.40;65.60;;;;;;5055376;28;20981;-63
2021/07/11 10:31:20;;;;;;;3.50;3.30;;;28.40;65.60;;;;;;5069495;28;20466;-63
2021/07/11 10:33:48;;;;;;;4.63;4.33;;;28.40;65.80;;;;;;5075016;28;20470;-63
2021/07/11 10:36:16;;;;;;;4.97;4.47;;;28.50;66.20;;;;;;5074785;28;20474;-63
2021/07/11 10:38:51;;;;;;;3.70;3.40;;;28.50;65.60;;;;;;5075030;28;21024;-63
2021/07/11 10:41:21;;;;;;;4.30;3.87;;;28.50;66.20;;;;;;5074730;28;20470;-63
2021/07/11 10:44:01;;;;;;;3.83;3.63;;;28.50;66.50;;;;;;5064416;28;20471;-63
2021/07/11 10:46:33;;;;;;;4.40;4.10;;;28.50;66.50;;;;;;5054589;28;20528;-63
2021/07/11 10:49:10;;;;;;;4.23;3.93;;;28.50;66.60;;;;;;5054712;28;20570;-62
2021/07/11 10:51:45;;;;;;;3.67;3.37;;;28.60;66.40;;;;;;5054690;28;20455;-62
2021/07/11 10:54:21;;;;;;;3.60;3.40;;;28.60;64.70;;;;;;5054834;28;20474;-62
2021/07/11 10:56:50;;;;;;;4.20;3.87;;;28.60;65.70;;;;;;5054977;28;20468;-64
2021/07/11 10:59:28;;;;;;;4.23;3.97;;;28.60;65.40;;;;;;5054275;28;20995;-63
2021/07/11 11:01:55;;;;;;;3.73;3.50;;;28.60;64.10;;;;;;5054240;28;20475;-63
2021/07/11 11:04:22;;;;;;;6.67;6.17;;;28.70;62.80;;;;;;5054623;28;20475;-63
2021/07/11 11:06:50;;;;;;;3.30;3.10;;;28.70;62.50;;;;;;5054480;28;20474;-64
2021/07/11 11:09:40;;;;;;;4.03;3.63;;;28.60;61.00;;;;;;5070895;28;20463;-61
2021/07/11 11:12:25;;;;;;;3.37;3.17;;;28.60;61.00;;;;;;5073943;28;20941;-63
2021/07/11 11:14:58;;;;;;;3.60;3.40;;;28.70;62.10;;;;;;5074696;28;20477;-62
2021/07/11 11:17:30;;;;;;;3.80;3.50;;;28.70;63.20;;;;;;5072604;28;20548;-63
2021/07/11 11:19:57;;;;;;;3.53;3.30;;;28.80;61.40;;;;;;5074462;28;20474;-63
2021/07/11 11:22:24;;;;;;;3.50;3.17;;;28.80;60.60;;;;;;5073788;28;20462;-62
2021/07/11 11:24:51;;;;;;;3.30;3.10;;;28.80;61.20;;;;;;5074096;28;20466;-62
2021/07/11 11:27:34;;;;;;;3.60;3.40;;;28.80;62.10;;;;;;5073581;28;20474;-63
2021/07/11 11:30:13;;;;;;;3.53;3.07;;;28.80;61.70;;;;;;5073962;28;21014;-63
2021/07/11 11:32:40;;;;;;;4.63;3.37;;;28.80;61.90;;;;;;5074108;28;21026;-63
2021/07/11 11:35:08;;;;;;;3.80;2.80;;;28.80;62.50;;;;;;5073461;28;20520;-61
2021/07/11 11:37:39;;;;;;;3.27;3.03;;;28.80;60.80;;;;;;5073830;28;20483;-63
2021/07/11 11:40:09;;;;;;;3.00;2.80;;;28.80;60.10;;;;;;5073401;28;20470;-63
2021/07/11 11:42:46;;;;;;;3.43;3.23;;;28.80;60.40;;;;;;5073080;28;20469;-63
2021/07/11 11:45:15;;;;;;;5.20;3.53;;;28.80;60.20;;;;;;5053488;28;20467;-64
2021/07/11 11:47:42;;;;;;;4.03;3.60;;;28.80;59.40;;;;;;5053792;28;20957;-62
2021/07/11 11:50:19;;;;;;;3.73;3.43;;;28.80;58.70;;;;;;5053460;28;20853;-63
2021/07/11 11:52:46;;;;;;;3.03;2.83;;;28.70;59.00;;;;;;5053712;28;20538;-62
2021/07/11 11:55:14;;;;;;;3.90;3.60;;;28.70;58.60;;;;;;5053339;28;20467;-63
2021/07/11 11:57:43;;;;;;;3.47;3.20;;;28.70;59.30;;;;;;5053648;28;20474;-63
2021/07/11 12:00:16;;;;;;;3.47;3.17;;;28.70;59.90;;;;;;5053469;28;20467;-63
2021/07/11 12:02:43;;;;;;;3.13;2.93;;;28.70;59.10;;;;;;5053470;28;20470;-63
2021/07/11 12:05:11;;;;;;;3.10;2.90;;;28.70;59.20;;;;;;5053183;28;20459;-63
2021/07/11 12:07:39;;;;;;;3.37;3.07;;;28.80;58.30;;;;;;5056491;28;20960;-63
2021/07/11 12:10:07;;;;;;;3.67;3.17;;;28.80;57.80;;;;;;5072946;28;20478;-63
2021/07/11 12:12:35;;;;;;;3.07;2.87;;;28.90;59.40;;;;;;5073255;28;20466;-63
2021/07/11 12:15:05;;;;;;;4.07;3.77;;;28.90;60.50;;;;;;5073372;28;20470;-63
2021/07/11 12:17:33;;;;;;;4.27;3.97;;;28.80;61.00;;;;;;5072614;28;20458;-63
2021/07/11 12:20:01;;;;;;;3.33;3.03;;;28.90;62.00;;;;;;5073173;28;20467;-63
2021/07/11 12:22:29;;;;;;;3.23;3.03;;;28.90;61.10;;;;;;5072754;28;20478;-63
2021/07/11 12:25:12;;;;;;;3.40;3.20;;;28.90;60.60;;;;;;5073210;28;20486;-63
2021/07/11 12:27:42;;;;;;;3.23;3.03;;;28.90;60.30;;;;;;5072819;28;21001;-63
2021/07/11 12:30:13;;;;;;;3.07;2.87;;;28.90;59.30;;;;;;5072694;28;20477;-63
2021/07/11 12:32:45;;;;;;;3.20;3.00;;;29.00;59.60;;;;;;5072624;28;20948;-63
2021/07/11 12:35:15;;;;;;;3.30;3.10;;;29.00;59.60;;;;;;5072926;28;20458;-63
2021/07/11 12:37:52;;;;;;;3.50;3.30;;;29.00;59.00;;;;;;5072342;28;20486;-63
2021/07/11 12:40:20;;;;;;;2.80;2.60;;;29.10;57.30;;;;;;5072772;28;20474;-63
2021/07/11 12:42:47;;;;;;;3.27;3.07;;;29.10;56.20;;;;;;5070943;28;20458;-63
2021/07/11 12:45:20;;;;;;;3.37;3.00;;;29.10;56.80;;;;;;5059475;28;20462;-62
2021/07/11 12:47:52;;;;;;;3.93;3.63;;;29.10;57.60;;;;;;5072344;28;20466;-62
2021/07/11 12:50:19;;;;;;;3.30;3.00;;;29.20;58.20;;;;;;5072885;28;20470;-62